Time;durP1;ratioP1;P1;durP2;ratioP2;P2;SDS_P1;SDS_P2;PMS_P1;PMS_P2;Temp;Humidity;BMP_temperature;BMP_pressure;BME280_temperature;BME280_humidity;BME280_pressure;Samples;Min_cycle;Max_cycle;Signal;HPM_P1;HPM_P2
2022/02/23 00:00:46;;;;;;;16.52;8.85;;;;;;;3.83;57.81;101254.16;1698281;84;25720;-58
2022/02/23 00:03:13;;;;;;;26.17;9.63;;;;;;;3.84;57.86;101247.02;1698470;84;26540;-57
2022/02/23 00:05:40;;;;;;;19.95;9.05;;;;;;;3.83;58.08;101243.51;1698476;84;25672;-56
2022/02/23 00:08:07;;;;;;;25.70;9.78;;;;;;;3.81;58.18;101241.88;1698508;84;27360;-57
2022/02/23 00:10:33;;;;;;;15.23;8.75;;;;;;;3.75;58.53;101243.91;1698116;84;25695;-57
2022/02/23 00:13:00;;;;;;;17.95;9.48;;;;;;;3.72;58.57;101248.53;1698399;84;25680;-57
2022/02/23 00:15:27;;;;;;;26.97;9.68;;;;;;;3.69;58.72;101250.89;1697824;84;25797;-57
2022/02/23 00:17:55;;;;;;;18.42;8.68;;;;;;;3.68;58.80;101241.62;1698279;84;25786;-56
2022/02/23 00:20:23;;;;;;;18.37;9.28;;;;;;;3.66;58.78;101241.72;1697942;84;27488;-57
2022/02/23 00:22:50;;;;;;;16.77;9.35;;;;;;;3.64;59.08;101240.94;1698307;84;25696;-57
2022/02/23 00:25:17;;;;;;;19.37;9.48;;;;;;;3.61;59.32;101243.78;1698367;83;25497;-56
2022/02/23 00:27:44;;;;;;;18.60;9.18;;;;;;;3.58;59.49;101247.91;1698209;84;25804;-57
2022/02/23 00:30:11;;;;;;;19.82;9.23;;;;;;;3.53;59.58;101252.14;1686701;84;25728;-57
2022/02/23 00:32:38;;;;;;;19.67;9.00;;;;;;;3.51;59.59;101250.50;1679117;85;27470;-57
2022/02/23 00:35:06;;;;;;;16.65;8.48;;;;;;;3.47;59.52;101249.80;1679337;85;25716;-57
2022/02/23 00:37:34;;;;;;;13.45;8.05;;;;;;;3.47;59.65;101254.25;1703746;82;25744;-57
2022/02/23 00:40:02;;;;;;;17.48;8.83;;;;;;;3.47;59.83;101255.58;1678086;84;25826;-57
2022/02/23 00:42:29;;;;;;;17.25;9.33;;;;;;;3.47;60.14;101255.13;1703921;83;25480;-56
2022/02/23 00:44:55;;;;;;;18.32;8.08;;;;;;;3.45;60.23;101259.66;1706490;83;28177;-57
2022/02/23 00:47:23;;;;;;;19.07;8.63;;;;;;;3.41;60.39;101253.63;1692461;84;25819;-57
2022/02/23 00:49:50;;;;;;;18.70;7.95;;;;;;;3.41;60.68;101257.63;1721250;83;25774;-57
2022/02/23 00:52:17;;;;;;;18.65;7.85;;;;;;;3.39;60.71;101260.82;1698139;84;25791;-57
2022/02/23 00:54:44;;;;;;;18.32;8.08;;;;;;;3.39;60.91;101256.83;1698100;84;25771;-56
2022/02/23 00:57:13;;;;;;;17.30;7.50;;;;;;;3.39;60.84;101264.81;1698147;84;27526;-57
2022/02/23 00:59:40;;;;;;;16.85;7.75;;;;;;;3.39;61.41;101256.83;1683376;83;25714;-57
2022/02/23 01:02:07;;;;;;;15.30;7.58;;;;;;;3.35;61.21;101253.95;1679171;85;25808;-57
2022/02/23 01:04:34;;;;;;;16.93;8.23;;;;;;;3.33;61.03;101256.27;1703717;83;26500;-57
2022/02/23 01:07:00;;;;;;;15.45;8.05;;;;;;;3.31;61.00;101260.83;1721640;83;25664;-58
2022/02/23 01:09:27;;;;;;;22.42;8.50;;;;;;;3.24;60.90;101259.79;1721226;82;27471;-59
2022/02/23 01:11:54;;;;;;;14.40;7.83;;;;;;;3.19;60.71;101256.52;1721537;83;25667;-57
2022/02/23 01:14:21;;;;;;;23.02;8.23;;;;;;;3.11;60.49;101255.55;1721302;82;25673;-56
2022/02/23 01:16:47;;;;;;;16.82;9.15;;;;;;;3.03;60.65;101255.08;1721554;83;25812;-56
2022/02/23 01:19:15;;;;;;;19.07;8.03;;;;;;;2.94;60.48;101258.19;1720772;83;25743;-57
2022/02/23 01:21:42;;;;;;;22.15;8.53;;;;;;;2.82;60.31;101255.66;1721337;83;29622;-58
2022/02/23 01:24:09;;;;;;;19.10;8.80;;;;;;;2.66;60.21;101266.16;1721274;83;25808;-59
2022/02/23 01:26:35;;;;;;;21.97;8.23;;;;;;;2.56;60.39;101266.19;1721608;83;25842;-57
2022/02/23 01:29:03;;;;;;;17.67;8.05;;;;;;;2.48;60.75;101268.74;1719383;82;25778;-57
2022/02/23 01:31:29;;;;;;;15.98;7.97;;;;;;;2.42;60.73;101265.06;1688954;84;25969;-58
2022/02/23 01:33:56;;;;;;;14.98;8.03;;;;;;;2.34;60.93;101260.57;1744825;82;27488;-58
2022/02/23 01:36:23;;;;;;;15.85;8.15;;;;;;;2.29;61.03;101262.11;1745385;82;25711;-57
2022/02/23 01:38:50;;;;;;;17.87;7.80;;;;;;;2.28;61.50;101264.84;1751452;81;25779;-57
2022/02/23 01:41:19;;;;;;;15.40;6.62;;;;;;;2.23;61.60;101260.20;1768164;80;26898;-58
2022/02/23 01:43:48;;;;;;;14.50;7.42;;;;;;;2.23;61.72;101262.84;1768055;81;25792;-57
2022/02/23 01:46:17;;;;;;;18.12;7.72;;;;;;;2.23;61.91;101273.47;1762638;81;28079;-57
2022/02/23 01:48:45;;;;;;;11.00;6.90;;;;;;;2.25;62.03;101276.92;1760249;81;25815;-57
2022/02/23 01:51:12;;;;;;;15.60;6.78;;;;;;;2.27;62.20;101275.06;1760744;81;25703;-56
2022/02/23 01:53:39;;;;;;;14.50;7.95;;;;;;;2.27;62.05;101283.88;1760605;81;25782;-57
2022/02/23 01:56:06;;;;;;;18.57;8.23;;;;;;;2.30;62.02;101278.44;1760692;81;25761;-56
2022/02/23 01:58:33;;;;;;;13.22;8.35;;;;;;;2.32;61.83;101275.70;1760610;81;27466;-57
2022/02/23 02:01:00;;;;;;;15.08;7.78;;;;;;;2.32;61.90;101278.36;1760363;81;25724;-57
2022/02/23 02:03:27;;;;;;;17.25;8.38;;;;;;;2.35;61.94;101288.84;1760567;81;25706;-57
2022/02/23 02:05:53;;;;;;;18.55;9.10;;;;;;;2.34;61.88;101299.92;1760621;81;25814;-57
2022/02/23 02:08:20;;;;;;;17.52;8.68;;;;;;;2.34;61.81;101303.05;1760693;81;25630;-57
2022/02/23 02:10:48;;;;;;;20.77;9.08;;;;;;;2.35;61.83;101306.11;1760559;81;28237;-57
2022/02/23 02:13:15;;;;;;;18.52;7.28;;;;;;;2.33;61.74;101303.98;1760491;81;25520;-57
2022/02/23 02:15:42;;;;;;;16.35;8.30;;;;;;;2.34;61.80;101302.57;1760595;81;25651;-57
2022/02/23 02:18:09;;;;;;;25.62;10.45;;;;;;;2.35;62.04;101311.42;1760246;81;25763;-57
2022/02/23 02:20:36;;;;;;;26.93;11.10;;;;;;;2.34;62.39;101322.48;1753863;81;25735;-57
2022/02/23 02:23:03;;;;;;;19.57;8.70;;;;;;;2.37;62.19;101320.19;1752896;81;27469;-57
2022/02/23 02:25:30;;;;;;;20.08;8.13;;;;;;;2.39;62.19;101322.76;1752989;81;25841;-57
2022/02/23 02:27:57;;;;;;;24.27;8.38;;;;;;;2.37;62.33;101314.87;1752972;81;25743;-57
2022/02/23 02:30:24;;;;;;;15.25;8.53;;;;;;;2.39;62.27;101322.76;1729241;81;25751;-57
2022/02/23 02:32:51;;;;;;;16.55;8.05;;;;;;;2.40;62.29;101322.68;1719072;83;25748;-57
2022/02/23 02:35:19;;;;;;;16.37;7.65;;;;;;;2.40;62.20;101327.98;1719271;83;27488;-57
2022/02/23 02:37:46;;;;;;;25.32;8.03;;;;;;;2.40;62.34;101333.30;1719584;83;25770;-57
2022/02/23 02:40:13;;;;;;;13.25;7.87;;;;;;;2.41;62.49;101340.34;1732642;81;25700;-57
2022/02/23 02:42:39;;;;;;;54.08;8.70;;;;;;;2.45;62.67;101344.59;1700021;82;25737;-57
2022/02/23 02:45:09;;;;;;;24.18;8.98;;;;;;;2.47;62.77;101346.69;1699890;84;25934;-57
2022/02/23 02:47:35;;;;;;;20.50;8.15;;;;;;;2.53;62.92;101344.70;1735275;82;28269;-57
2022/02/23 02:50:04;;;;;;;18.48;7.45;;;;;;;2.60;62.94;101344.81;1734894;82;25500;-57
2022/02/23 02:52:32;;;;;;;22.58;7.50;;;;;;;2.67;63.10;101347.58;1735330;82;25780;-58
2022/02/23 02:54:59;;;;;;;16.75;7.97;;;;;;;2.73;63.17;101341.13;1735056;82;25786;-58
2022/02/23 02:57:26;;;;;;;17.77;8.48;;;;;;;2.84;63.32;101345.47;1735266;82;25727;-59
2022/02/23 02:59:53;;;;;;;22.67;9.03;;;;;;;2.91;63.29;101345.58;1735187;82;28154;-58
2022/02/23 03:02:20;;;;;;;23.62;9.15;;;;;;;2.99;63.11;101345.22;1735040;82;25750;-58
2022/02/23 03:04:47;;;;;;;23.98;9.40;;;;;;;3.04;62.92;101347.18;1735013;82;25747;-58
2022/02/23 03:07:14;;;;;;;17.12;8.90;;;;;;;3.08;62.84;101354.09;1734813;82;25774;-58
2022/02/23 03:09:40;;;;;;;17.82;8.70;;;;;;;3.08;62.73;101352.76;1730735;82;25751;-57
2022/02/23 03:12:08;;;;;;;17.40;9.90;;;;;;;3.09;62.50;101350.47;1735020;82;29607;-58
2022/02/23 03:14:35;;;;;;;16.55;8.85;;;;;;;3.07;62.46;101348.38;1734861;82;25550;-58
2022/02/23 03:17:04;;;;;;;22.40;9.55;;;;;;;3.06;62.28;101355.07;1735029;82;25874;-57
2022/02/23 03:19:32;;;;;;;21.93;10.98;;;;;;;3.04;62.19;101352.98;1735495;82;25858;-59
2022/02/23 03:21:59;;;;;;;20.37;9.50;;;;;;;3.02;62.19;101358.34;1739708;82;25823;-57
2022/02/23 03:24:26;;;;;;;17.82;8.60;;;;;;;3.02;62.07;101361.00;1739925;82;27517;-57
2022/02/23 03:26:53;;;;;;;18.32;8.90;;;;;;;2.97;62.04;101356.39;1739764;82;25762;-58
2022/02/23 03:29:20;;;;;;;20.02;9.08;;;;;;;2.97;62.00;101361.22;1739893;82;25434;-58
2022/02/23 03:31:46;;;;;;;25.32;10.85;;;;;;;2.95;61.96;101359.13;1740174;82;25776;-57
2022/02/23 03:34:14;;;;;;;19.98;9.83;;;;;;;2.94;61.96;101359.17;1739822;81;25707;-58
2022/02/23 03:36:41;;;;;;;18.12;9.60;;;;;;;2.92;61.93;101359.27;1739872;80;27539;-58
2022/02/23 03:39:08;;;;;;;18.50;9.75;;;;;;;2.90;62.11;101365.59;1751975;81;25881;-58
2022/02/23 03:41:35;;;;;;;26.05;10.25;;;;;;;2.90;62.04;101362.93;1771373;81;25606;-58
2022/02/23 03:44:02;;;;;;;18.80;10.10;;;;;;;2.91;61.98;101362.00;1771046;80;25808;-58
2022/02/23 03:46:29;;;;;;;19.02;10.05;;;;;;;2.91;61.98;101367.31;1756180;81;25437;-57
2022/02/23 03:48:56;;;;;;;20.80;8.85;;;;;;;2.93;61.93;101368.96;1752803;81;27477;-58
2022/02/23 03:51:23;;;;;;;22.67;9.45;;;;;;;2.94;61.88;101372.47;1704117;84;25810;-57
2022/02/23 03:53:50;;;;;;;22.00;9.03;;;;;;;2.94;61.92;101371.14;1704061;83;25819;-57
2022/02/23 03:56:39;;;;;;;22.32;9.98;;;;;;;2.93;61.91;101373.40;1704137;83;26178;-58
2022/02/23 03:59:11;;;;;;;21.85;9.73;;;;;;;2.92;61.80;101382.30;1704125;83;25911;-57
2022/02/23 04:01:40;;;;;;;17.40;8.55;;;;;;;2.93;61.91;101387.56;1703734;83;27464;-58
2022/02/23 04:04:08;;;;;;;17.70;10.20;;;;;;;2.94;61.78;101385.30;1704213;84;25547;-58
2022/02/23 04:06:37;;;;;;;25.92;10.15;;;;;;;2.97;61.82;101390.94;1704077;83;25654;-58
2022/02/23 04:09:08;;;;;;;20.75;9.35;;;;;;;2.99;61.80;101394.39;1704221;84;25845;-58
2022/02/23 04:11:34;;;;;;;18.12;9.33;;;;;;;3.00;61.85;101396.57;1704079;83;25474;-58
2022/02/23 04:14:03;;;;;;;19.57;9.35;;;;;;;3.00;61.84;101396.13;1704249;83;27482;-57
2022/02/23 04:16:31;;;;;;;23.80;10.08;;;;;;;3.02;61.89;101403.53;1703959;83;25710;-57
2022/02/23 04:18:58;;;;;;;17.70;9.40;;;;;;;3.02;62.02;101397.37;1708608;82;25473;-58
2022/02/23 04:21:25;;;;;;;22.27;9.65;;;;;;;3.00;61.99;101401.44;1755025;81;25803;-57
2022/02/23 04:23:52;;;;;;;19.73;9.03;;;;;;;3.01;62.13;101408.45;1704245;84;26018;-57
2022/02/23 04:26:20;;;;;;;20.02;9.68;;;;;;;2.97;62.38;101404.23;1752949;81;28119;-57
2022/02/23 04:28:47;;;;;;;20.50;9.13;;;;;;;2.96;62.51;101411.32;1702506;83;25719;-57
2022/02/23 04:31:14;;;;;;;23.92;9.70;;;;;;;2.97;62.57;101413.05;1698509;83;25793;-57
2022/02/23 04:33:42;;;;;;;21.05;9.83;;;;;;;3.00;63.04;101414.73;1698870;83;26515;-57
2022/02/23 04:36:11;;;;;;;19.23;8.70;;;;;;;3.02;62.99;101406.19;1658695;85;25709;-57
2022/02/23 04:38:38;;;;;;;20.40;9.75;;;;;;;3.05;63.00;101404.73;1701744;83;28354;-58
2022/02/23 04:41:08;;;;;;;17.70;8.53;;;;;;;3.15;63.18;101412.27;1698275;83;25795;-57
2022/02/23 04:43:36;;;;;;;20.02;8.98;;;;;;;3.19;63.19;101420.48;1698304;84;25699;-57
2022/02/23 04:46:08;;;;;;;20.10;8.13;;;;;;;3.24;63.17;101421.99;1683512;83;25738;-57
2022/02/23 04:48:36;;;;;;;24.40;9.20;;;;;;;3.31;63.17;101425.23;1697988;84;25965;-57
2022/02/23 04:51:04;;;;;;;13.28;8.48;;;;;;;3.37;63.47;101432.91;1698078;83;27487;-57
2022/02/23 04:57:30;;;;;;;21.50;11.65;;;;;;;3.42;62.97;101429.58;1707562;82;25738;-57
2022/02/23 04:59:57;;;;;;;21.17;9.88;;;;;;;3.49;62.72;101429.27;1730502;82;25875;-57
2022/02/23 05:02:25;;;;;;;17.50;11.15;;;;;;;3.51;62.34;101440.70;1702898;83;25780;-56
2022/02/23 05:04:52;;;;;;;31.40;10.98;;;;;;;3.51;62.30;101444.70;1701725;84;27468;-57
2022/02/23 05:07:20;;;;;;;30.57;11.45;;;;;;;3.50;62.33;101449.63;1703627;84;25828;-57
2022/02/23 05:09:49;;;;;;;24.65;9.65;;;;;;;3.50;62.07;101452.28;1701785;84;25859;-58
2022/02/23 05:12:16;;;;;;;24.77;10.53;;;;;;;3.47;61.97;101456.41;1704130;83;25787;-58
2022/02/23 05:14:43;;;;;;;26.35;9.75;;;;;;;3.45;61.87;101458.67;1702606;84;25783;-57
2022/02/23 05:17:11;;;;;;;20.37;10.08;;;;;;;3.44;61.92;101461.41;1702024;84;27471;-57
2022/02/23 05:19:38;;;;;;;31.93;11.53;;;;;;;3.43;61.83;101461.02;1703253;84;25952;-57
2022/02/23 05:22:06;;;;;;;33.80;14.38;;;;;;;3.40;61.85;101467.83;1718108;83;25766;-57
2022/02/23 05:24:35;;;;;;;28.17;11.88;;;;;;;3.39;61.95;101476.27;1750977;81;25745;-57
2022/02/23 05:27:03;;;;;;;29.52;15.23;;;;;;;3.41;61.95;101471.73;1717420;83;25795;-57
2022/02/23 05:29:31;;;;;;;30.17;14.85;;;;;;;3.44;61.81;101481.36;1749358;81;27408;-57
2022/02/23 05:31:59;;;;;;;42.78;13.93;;;;;;;3.45;61.83;101485.27;1745338;82;25715;-58
2022/02/23 05:34:26;;;;;;;41.33;11.78;;;;;;;3.48;61.92;101475.42;1745647;82;25696;-56
2022/02/23 05:36:53;;;;;;;35.38;12.37;;;;;;;3.48;61.76;101472.77;1745894;82;25832;-57
2022/02/23 05:39:21;;;;;;;25.60;10.75;;;;;;;3.48;61.62;101474.09;1755663;81;25710;-57
2022/02/23 05:41:48;;;;;;;37.25;14.20;;;;;;;3.51;61.54;101477.47;1766759;81;27505;-57
2022/02/23 05:44:15;;;;;;;30.75;12.45;;;;;;;3.52;61.50;101477.02;1766340;80;25523;-57
2022/02/23 05:46:42;;;;;;;41.50;15.95;;;;;;;3.55;61.34;101477.73;1782831;80;25732;-58
2022/02/23 05:49:09;;;;;;;37.28;11.20;;;;;;;3.58;61.34;101480.70;1784984;80;26718;-58
2022/02/23 05:51:38;;;;;;;34.65;13.53;;;;;;;3.63;61.18;101480.00;1784695;80;26424;-57
2022/02/23 05:54:06;;;;;;;39.88;11.93;;;;;;;3.68;61.17;101483.77;1726374;82;27476;-57
2022/02/23 05:56:35;;;;;;;24.85;10.60;;;;;;;3.74;60.81;101480.36;1726371;83;26384;-58
2022/02/23 05:59:02;;;;;;;36.93;11.90;;;;;;;3.76;60.65;101474.98;1726336;83;25806;-57
2022/02/23 06:01:29;;;;;;;24.37;10.15;;;;;;;3.81;60.45;101474.76;1726468;83;25778;-57
2022/02/23 06:03:56;;;;;;;34.15;11.85;;;;;;;3.85;60.30;101477.64;1726677;83;25476;-57
2022/02/23 06:06:23;;;;;;;23.57;10.63;;;;;;;3.88;59.88;101469.52;1726434;83;27471;-56
2022/02/23 06:08:50;;;;;;;24.00;10.58;;;;;;;3.90;59.82;101471.61;1726275;83;26321;-57
2022/02/23 06:11:17;;;;;;;38.83;12.85;;;;;;;3.89;59.71;101464.11;1726409;83;25835;-57
2022/02/23 06:13:51;;;;;;;34.67;11.28;;;;;;;3.91;59.63;101462.69;1726422;83;25756;-57
2022/02/23 06:16:23;;;;;;;24.45;11.45;;;;;;;3.96;59.48;101465.13;1726416;83;25865;-57
2022/02/23 06:18:51;;;;;;;29.85;11.85;;;;;;;3.98;59.48;101461.92;1726514;83;28157;-57
2022/02/23 06:21:18;;;;;;;35.78;11.00;;;;;;;4.03;59.20;101457.25;1718684;83;25870;-57
2022/02/23 06:23:45;;;;;;;29.90;11.97;;;;;;;4.05;59.25;101466.88;1708081;84;25760;-58
2022/02/23 06:26:13;;;;;;;25.43;10.43;;;;;;;4.08;58.80;101464.05;1708139;84;25870;-58
2022/02/23 06:28:41;;;;;;;22.75;10.48;;;;;;;4.12;58.61;101466.56;1708268;84;25788;-57
2022/02/23 06:31:08;;;;;;;28.35;10.80;;;;;;;4.16;58.48;101470.80;1659210;86;27571;-58
2022/02/23 06:33:35;;;;;;;32.30;10.30;;;;;;;4.18;58.59;101469.78;1700096;82;25768;-58
2022/02/23 06:36:02;;;;;;;32.95;10.88;;;;;;;4.26;58.38;101472.52;1699893;84;25749;-58
2022/02/23 06:38:29;;;;;;;34.70;10.45;;;;;;;4.32;58.25;101470.87;1708266;80;26523;-58
2022/02/23 06:40:57;;;;;;;39.25;11.43;;;;;;;4.37;58.40;101477.69;1765883;81;25705;-57
2022/02/23 06:43:25;;;;;;;24.27;11.25;;;;;;;4.44;58.46;101480.91;1765941;81;27703;-58
2022/02/23 06:45:52;;;;;;;44.40;11.83;;;;;;;4.48;58.29;101482.45;1749945;81;25989;-58
2022/02/23 06:48:21;;;;;;;20.52;11.43;;;;;;;4.53;58.01;101478.22;1735015;82;25683;-58
2022/02/23 06:50:49;;;;;;;31.77;11.12;;;;;;;4.62;57.66;101483.56;1735207;81;25772;-58
2022/02/23 06:53:16;;;;;;;28.10;11.55;;;;;;;4.69;57.57;101487.62;1735089;81;25505;-57
2022/02/23 06:55:44;;;;;;;37.38;11.22;;;;;;;4.75;57.35;101476.63;1735236;82;27449;-57
2022/02/23 06:58:12;;;;;;;23.98;9.93;;;;;;;4.79;57.23;101480.02;1734629;82;26451;-58
2022/02/23 07:00:40;;;;;;;41.80;12.05;;;;;;;4.84;56.76;101482.80;1682677;84;25838;-57
2022/02/23 07:03:09;;;;;;;34.50;11.90;;;;;;;4.85;57.05;101487.20;1705014;84;25915;-58
2022/02/23 07:05:37;;;;;;;29.02;11.75;;;;;;;4.88;57.04;101476.86;1705800;84;25803;-57
2022/02/23 07:08:09;;;;;;;29.95;11.65;;;;;;;4.93;57.11;101484.13;1705556;84;28171;-57
2022/02/23 07:10:38;;;;;;;30.82;9.90;;;;;;;4.99;57.14;101487.79;1709910;81;26325;-57
2022/02/23 07:13:07;;;;;;;24.77;7.97;;;;;;;5.04;56.79;101490.21;1734871;82;25439;-58
2022/02/23 07:15:36;;;;;;;22.30;9.90;;;;;;;5.06;56.21;101493.66;1735131;82;25765;-57
2022/02/23 07:18:04;;;;;;;33.95;9.98;;;;;;;5.13;55.89;101499.05;1734846;82;25739;-57
2022/02/23 07:20:31;;;;;;;34.23;9.83;;;;;;;5.21;55.86;101498.65;1735089;82;27492;-57
2022/02/23 07:22:57;;;;;;;24.65;8.03;;;;;;;5.27;55.56;101500.12;1730189;82;25854;-58
2022/02/23 07:25:24;;;;;;;33.95;9.80;;;;;;;5.35;55.02;101497.02;1730398;81;25780;-57
2022/02/23 07:27:51;;;;;;;30.35;8.50;;;;;;;5.40;54.23;101498.97;1730027;82;25727;-57
2022/02/23 07:30:18;;;;;;;23.15;7.70;;;;;;;5.47;54.40;101499.02;1713170;82;25913;-58
2022/02/23 07:32:46;;;;;;;25.35;8.58;;;;;;;5.61;54.68;101497.77;1704457;84;27483;-58
2022/02/23 07:35:14;;;;;;;24.77;6.10;;;;;;;5.77;53.67;101500.44;1704239;84;26382;-57
2022/02/23 07:37:44;;;;;;;25.65;7.67;;;;;;;5.88;52.66;101499.81;1704283;84;25765;-57
2022/02/23 07:40:18;;;;;;;28.15;9.25;;;;;;;5.92;53.07;101492.02;1730277;81;25815;-57
2022/02/23 07:42:46;;;;;;;31.80;8.35;;;;;;;6.01;52.80;101501.33;1735318;82;25781;-57
2022/02/23 07:45:14;;;;;;;22.37;7.92;;;;;;;6.12;51.90;101503.41;1744201;81;28133;-57
2022/02/23 07:47:40;;;;;;;23.30;7.72;;;;;;;6.18;51.75;101499.03;1769073;80;25827;-57
2022/02/23 07:50:12;;;;;;;27.95;7.97;;;;;;;6.33;51.87;101497.73;1769271;81;25748;-56
2022/02/23 07:52:39;;;;;;;17.67;7.78;;;;;;;6.49;52.41;101495.02;1768910;80;26397;-57
2022/02/23 07:55:09;;;;;;;21.33;7.65;;;;;;;6.68;52.04;101496.97;1768942;81;25529;-56
2022/02/23 07:57:36;;;;;;;34.00;7.58;;;;;;;6.87;52.28;101503.38;1769196;81;27495;-56
2022/02/23 08:00:06;;;;;;;23.47;8.28;;;;;;;7.02;52.31;101498.06;1768773;81;25832;-57
2022/02/23 08:02:34;;;;;;;33.95;8.90;;;;;;;7.13;52.15;101498.22;1768203;81;25625;-57
2022/02/23 08:05:02;;;;;;;29.80;9.05;;;;;;;7.27;50.63;101503.20;1768962;81;25747;-56
2022/02/23 08:07:29;;;;;;;29.00;8.65;;;;;;;7.42;50.19;101503.56;1769173;80;25459;-56
2022/02/23 08:09:56;;;;;;;30.90;8.35;;;;;;;7.58;49.83;101501.23;1722221;83;27581;-56
2022/02/23 08:12:23;;;;;;;27.15;8.55;;;;;;;7.71;49.94;101497.31;1722427;82;25726;-57
2022/02/23 08:14:53;;;;;;;25.15;8.23;;;;;;;7.83;49.07;101493.81;1722185;83;25693;-57
2022/02/23 08:20:07;;;;;;;20.43;9.13;;;;;;;8.11;48.33;101494.67;1721335;83;25935;-58
2022/02/23 08:22:35;;;;;;;29.42;7.95;;;;;;;8.26;48.19;101489.61;1718923;82;27458;-59
2022/02/23 08:25:03;;;;;;;25.10;7.97;;;;;;;8.48;47.75;101493.56;1765952;81;25798;-58
2022/02/23 08:27:32;;;;;;;26.17;8.23;;;;;;;8.62;47.61;101497.98;1766299;81;25819;-59
2022/02/23 08:29:59;;;;;;;26.45;8.53;;;;;;;8.78;46.65;101499.13;1754257;81;25795;-58
2022/02/23 08:32:26;;;;;;;23.67;7.42;;;;;;;8.88;46.41;101505.55;1743135;81;25721;-58
2022/02/23 08:34:53;;;;;;;17.90;6.53;;;;;;;8.89;46.27;101508.61;1742675;82;27465;-58
2022/02/23 08:37:20;;;;;;;24.20;8.23;;;;;;;8.94;45.89;101506.95;1743201;82;25730;-58
2022/02/23 08:39:48;;;;;;;29.72;8.65;;;;;;;9.02;45.40;101505.92;1758410;81;25718;-58
2022/02/23 08:42:17;;;;;;;26.42;7.47;;;;;;;9.02;44.92;101510.45;1766733;81;25845;-57
2022/02/23 08:44:45;;;;;;;26.87;7.45;;;;;;;9.04;45.65;101509.36;1766883;80;25784;-58
2022/02/23 08:47:13;;;;;;;26.97;11.73;;;;;;;9.15;46.02;101506.41;1776985;80;28675;-57
2022/02/23 08:49:40;;;;;;;27.02;9.00;;;;;;;9.26;46.13;101499.80;1776726;80;25716;-57
2022/02/23 08:52:09;;;;;;;22.20;6.80;;;;;;;9.34;46.04;101495.20;1737855;82;25699;-58
2022/02/23 08:54:36;;;;;;;35.52;7.45;;;;;;;9.37;45.29;101497.67;1737236;82;25779;-57
2022/02/23 08:57:04;;;;;;;29.12;6.83;;;;;;;9.32;44.30;101493.98;1708010;84;25853;-58
2022/02/23 08:59:31;;;;;;;28.67;6.53;;;;;;;9.22;44.84;101498.28;1767907;80;27524;-58
2022/02/23 09:01:58;;;;;;;25.27;7.47;;;;;;;9.19;45.31;101492.66;1745128;82;25521;-59
2022/02/23 09:04:25;;;;;;;24.87;7.03;;;;;;;9.35;43.79;101497.80;1745370;82;25756;-57
2022/02/23 09:06:52;;;;;;;27.98;8.03;;;;;;;9.52;44.12;101492.53;1745392;82;25872;-57
2022/02/23 09:09:21;;;;;;;26.02;7.87;;;;;;;9.71;43.45;101488.50;1745872;82;25919;-57
2022/02/23 09:11:48;;;;;;;29.98;6.60;;;;;;;9.88;44.09;101495.32;1745558;82;27492;-58
2022/02/23 09:14:16;;;;;;;29.60;7.25;;;;;;;10.13;43.59;101496.17;1724285;81;25731;-58
2022/02/23 09:16:44;;;;;;;19.32;6.70;;;;;;;10.45;43.91;101491.53;1715695;83;25844;-58
2022/02/23 09:19:11;;;;;;;27.42;6.97;;;;;;;10.77;43.64;101489.55;1716179;83;25837;-58
2022/02/23 09:21:38;;;;;;;25.60;7.08;;;;;;;11.14;43.34;101479.92;1714100;82;25747;-58
2022/02/23 09:24:07;;;;;;;23.70;6.78;;;;;;;11.54;42.45;101483.42;1700997;84;27495;-58
2022/02/23 09:26:35;;;;;;;22.25;7.20;;;;;;;12.06;40.88;101476.06;1700975;84;25795;-58
2022/02/23 09:29:02;;;;;;;25.32;7.28;;;;;;;12.81;39.92;101468.80;1704804;82;25826;-58
2022/02/23 09:31:29;;;;;;;24.77;6.80;;;;;;;13.84;39.55;101463.33;1730120;82;27957;-58
2022/02/23 09:33:55;;;;;;;30.05;7.40;;;;;;;14.76;37.45;101464.34;1730304;82;26817;-58
2022/02/23 09:36:22;;;;;;;32.20;8.20;;;;;;;15.72;36.72;101450.98;1730147;82;27502;-58
2022/02/23 09:38:55;;;;;;;35.50;8.08;;;;;;;16.57;36.76;101444.62;1740308;81;25826;-58
2022/02/23 09:41:21;;;;;;;31.20;7.03;;;;;;;17.35;34.63;101436.05;1768217;81;25675;-58
2022/02/23 09:43:52;;;;;;;20.88;6.05;;;;;;;17.89;32.15;101433.94;1768710;81;25765;-58
2022/02/23 09:46:21;;;;;;;19.55;5.67;;;;;;;18.67;31.20;101429.00;1744877;81;25842;-58
2022/02/23 09:48:52;;;;;;;24.45;6.62;;;;;;;19.31;29.34;101428.99;1699931;82;27397;-58
2022/02/23 09:51:20;;;;;;;23.25;6.83;;;;;;;19.84;29.24;101426.97;1699796;83;25851;-57
2022/02/23 09:53:47;;;;;;;20.05;7.05;;;;;;;20.43;29.39;101413.17;1699806;83;25717;-57
2022/02/23 09:56:18;;;;;;;17.95;6.50;;;;;;;20.92;27.78;101408.58;1699919;84;25767;-58
2022/02/23 09:58:46;;;;;;;19.32;6.05;;;;;;;20.72;27.13;101404.67;1699754;82;25777;-58
2022/02/23 10:01:15;;;;;;;23.83;6.40;;;;;;;20.52;28.05;101397.02;1699924;84;27443;-58
2022/02/23 10:03:47;;;;;;;28.83;7.33;;;;;;;20.77;28.08;101392.67;1699408;84;25809;-59
2022/02/23 10:06:33;;;;;;;22.45;6.17;;;;;;;21.36;27.95;101383.54;1699799;82;25543;-58
2022/02/23 10:09:05;;;;;;;14.20;5.53;;;;;;;21.82;26.65;101372.80;1699793;84;26426;-59
2022/02/23 10:11:33;;;;;;;17.85;5.67;;;;;;;22.14;25.09;101368.33;1699768;84;25683;-59
2022/02/23 10:14:02;;;;;;;23.38;8.13;;;;;;;22.42;24.46;101368.84;1699828;84;27480;-59
2022/02/23 10:16:39;;;;;;;14.83;5.85;;;;;;;22.63;23.81;101366.05;1699666;84;26032;-59
2022/02/23 10:19:17;;;;;;;16.70;5.58;;;;;;;22.80;24.44;101361.09;1699535;82;26040;-59
2022/02/23 10:22:04;;;;;;;13.93;6.05;;;;;;;23.18;23.37;101352.92;1700383;81;27933;-58
2022/02/23 10:24:39;;;;;;;14.70;5.62;;;;;;;23.56;23.33;101350.16;1724718;82;25805;-59
2022/02/23 10:27:12;;;;;;;17.00;5.00;;;;;;;23.87;23.12;101346.80;1724972;83;28138;-58
2022/02/23 10:29:54;;;;;;;16.65;4.28;;;;;;;23.98;23.29;101343.98;1700432;84;25702;-58
2022/02/23 10:32:25;;;;;;;16.25;4.75;;;;;;;24.36;22.35;101332.86;1707960;83;25754;-57
2022/02/23 10:34:56;;;;;;;17.80;4.70;;;;;;;24.85;20.25;101330.62;1750883;81;25764;-57
2022/02/23 10:37:26;;;;;;;15.38;4.15;;;;;;;24.67;20.51;101326.67;1751197;81;25803;-58
2022/02/23 10:40:02;;;;;;;11.08;5.25;;;;;;;24.91;20.01;101326.98;1768885;80;28196;-58
2022/02/23 10:42:29;;;;;;;;;;;;;;;25.05;18.19;101311.80;1739363;82;25467;-57
2022/02/23 10:44:59;;;;;;;13.58;4.67;;;;;;;24.85;18.93;101319.06;1734495;82;25735;-58
2022/02/23 10:47:33;;;;;;;10.23;3.77;;;;;;;24.98;19.29;101320.08;1715372;83;26392;-58
2022/02/23 10:50:24;;;;;;;10.53;3.05;;;;;;;24.65;17.73;101312.25;1686888;85;25768;-57
2022/02/23 10:52:59;;;;;;;4.58;2.67;;;;;;;24.75;18.55;101312.35;1714585;83;27508;-57
2022/02/23 10:55:32;;;;;;;11.38;3.83;;;;;;;24.58;17.15;101311.43;1686721;84;25954;-57
2022/02/23 10:58:02;;;;;;;8.55;3.85;;;;;;;24.49;17.76;101310.81;1715362;82;32469;-58
2022/02/23 11:00:38;;;;;;;15.85;3.83;;;;;;;24.99;17.44;101297.84;1686686;84;25866;-58
2022/02/23 11:03:05;;;;;;;5.95;3.10;;;;;;;25.25;17.46;101295.16;1708375;83;25721;-58
2022/02/23 11:05:33;;;;;;;12.30;3.72;;;;;;;25.22;17.35;101302.47;1709825;83;27483;-58
2022/02/23 11:08:04;;;;;;;13.25;3.70;;;;;;;25.10;17.23;101289.95;1695354;83;25930;-57
2022/02/23 11:10:32;;;;;;;10.55;5.95;;;;;;;25.47;17.62;101286.03;1681505;85;25480;-57
2022/02/23 11:13:00;;;;;;;12.33;4.33;;;;;;;25.41;16.08;101278.13;1681161;85;26433;-57
2022/02/23 11:15:30;;;;;;;14.10;6.03;;;;;;;25.69;16.77;101280.98;1681024;85;25634;-58
2022/02/23 11:17:57;;;;;;;14.13;4.87;;;;;;;25.68;16.87;101272.41;1680983;84;27455;-58
2022/02/23 11:20:29;;;;;;;15.53;4.47;;;;;;;25.28;17.40;101265.27;1680839;85;25863;-58
2022/02/23 11:23:00;;;;;;;9.75;3.77;;;;;;;24.87;16.84;101255.58;1678821;85;25717;-58
2022/02/23 11:25:41;;;;;;;8.80;3.75;;;;;;;24.99;16.21;101254.34;1675810;85;26639;-58
2022/02/23 11:28:16;;;;;;;5.28;3.30;;;;;;;24.72;15.74;101261.88;1675841;85;25893;-58
2022/02/23 11:30:43;;;;;;;6.15;3.37;;;;;;;24.58;15.61;101263.30;1698926;84;27383;-58
2022/02/23 11:33:10;;;;;;;8.85;3.75;;;;;;;24.63;16.22;101250.27;1693998;84;25809;-58